Terminal Aerodrome Forecast
Issued by NWS

Home | Current Version | Previous Version | Text Only | Print | Product List | Glossary On
Versions: 1 2 3 4 5 6 7 8 9 10 11 12 13 14 15 16 17 18 19 20 21 22 23 24
000
FTUS43 KIND 281800 AAA
TAFHUF
TAF AMD
KHUF 281857Z 2819/2918 34014G20KT P6SM BKN040
     FM282300 35005KT P6SM SCT050
     FM290900 33003KT P6SM BKN040
     FM291500 29007KT P6SM BKN050=

USA.gov is the U.S. government's official web portal to all federal, state and local government web resources and services.